Commit 27a97740 authored by Tobias Steinhoff's avatar Tobias Steinhoff

Delete AL516_2019-157-1801dat.txt

parent 293c4a1c
Type error PC Date PC Time equ temp std val CO2 mv CO2 um/m H2O mv H2O mm/m licor temp licor press SECONDS DIAG H2O CO2 CAVITY_P CAVITY_T LASER_PHASE_P LASER_T RESIDUAL RING_DOWN_TIME THERMAL_ENCLOSURE_T PHASE_ERROR LASER_T_SHIFT CO2_mean CO2_stdev CO2_slope equ press H2O flow licor flow equ pump vent flow atm cond equ cond drip 1 drip 2 cond temp dry box temp
STD1 256 06/06/19 18:13:07 0.00 0.00 137.55 -2.73 -11.96 -0.07 45.59 1007.00 1559837602.00 0.00 94.38 0.71 39.82 55.00 30.21 45.02 0.00 12.64 54.50 -193.75 20.70 0.70 0.02 0.00 0.23 0.05 228.57 0.00 -217.78 9.99 9.69 9.99 0.6250 8.44 26.50
STD1 256 06/06/19 18:14:24 0.00 0.00 136.07 -2.95 -12.87 -0.08 45.59 1007.00 1559837679.00 0.00 91.08 0.70 39.82 55.00 30.20 45.02 0.00 12.64 54.50 -215.50 20.70 0.69 0.02 -0.00 0.23 0.05 231.69 0.00 -217.40 9.99 9.70 9.99 0.6260 8.19 26.50
STD1 256 06/06/19 18:15:42 0.00 0.00 137.52 -2.73 -12.62 -0.08 45.60 1007.90 1559837757.00 0.00 88.84 0.69 39.82 55.00 30.20 45.02 0.00 12.64 54.50 -160.50 20.70 0.68 0.01 Inf 0.23 0.05 233.03 0.00 -217.94 9.99 9.69 9.99 0.6260 8.06 26.50
STD2 256 06/06/19 18:26:59 0.00 350.10 2007.30 346.78 -10.25 -0.06 45.65 1000.80 1559838434.00 0.00 90.15 350.49 39.76 55.00 30.05 45.02 0.00 12.63 54.50 -87.50 20.70 350.50 0.02 -Inf 0.24 0.05 231.91 0.00 -220.07 9.99 9.69 10.00 0.6260 7.31 26.56
STD2 256 06/06/19 18:28:16 0.00 350.10 2008.30 346.84 -10.37 -0.06 45.66 1001.20 1559838511.00 0.00 88.85 350.54 39.76 55.00 30.05 45.02 0.00 12.63 54.50 -133.25 20.70 350.51 0.02 0.00 0.24 0.05 231.69 0.00 -220.01 9.99 9.69 10.00 0.6270 7.31 26.56
STD2 256 06/06/19 18:29:33 0.00 350.10 2008.70 346.78 -10.42 -0.06 45.66 1001.60 1559838589.00 0.00 87.55 350.55 39.76 55.00 30.05 45.02 0.00 12.63 54.50 -178.75 20.70 350.52 0.03 Inf 0.24 0.05 231.24 0.00 -220.48 9.99 9.69 10.00 0.6280 7.25 26.62
STD3-DRAIN 256 06/06/19 18:40:51 0.00 512.60 2654.40 510.54 -11.58 -0.07 45.73 1005.80 1559839266.00 0.00 82.91 513.15 39.76 55.00 30.05 45.02 0.00 12.62 54.50 -77.00 20.70 513.14 0.02 -Inf 0.24 0.05 228.57 0.00 -221.91 9.99 9.69 9.99 0.6270 7.12 26.56
STD3 256 06/06/19 18:42:29 0.00 512.60 2655.90 510.61 -11.46 -0.07 45.73 1006.20 1559839365.00 0.00 83.38 513.13 39.77 55.00 30.05 45.02 0.00 12.62 54.50 -200.00 20.70 513.12 0.02 Inf 0.24 0.05 226.80 0.00 -221.12 9.99 9.69 9.99 0.6270 7.12 26.56
STD3 256 06/06/19 18:43:46 0.00 512.60 2656.70 510.59 -11.54 -0.07 45.74 1006.60 1559839442.00 0.00 80.60 513.15 39.76 55.00 30.05 45.02 0.00 12.62 54.50 -199.75 20.70 513.13 0.02 -0.00 0.24 0.05 229.02 0.00 -220.51 9.99 9.69 9.99 0.6270 7.12 26.50
EQU 256 06/06/19 18:49:30 0.00 NaN 2577.70 563.83 1234.70 15.48 45.77 915.52 1559839785.00 0.00 15981.70 567.04 39.85 55.00 30.05 45.02 0.00 12.61 54.50 247.75 20.70 567.86 0.50 -0.51 0.24 0.05 230.80 0.00 -219.58 9.99 9.70 10.00 0.6270 7.19 26.50
EQU 256 06/06/19 18:50:50 0.00 NaN 2582.60 565.27 1244.50 15.64 45.77 915.77 1559839865.00 0.00 16153.70 568.91 39.85 55.00 30.05 45.02 0.00 12.61 54.50 215.25 20.70 568.91 0.37 -Inf 0.24 0.05 228.79 0.00 -220.66 9.99 9.70 10.00 0.6280 7.25 26.50
EQU 256 06/06/19 18:52:10 0.00 NaN 2550.30 554.78 1245.60 15.66 45.76 915.86 1559839945.00 0.00 16172.20 558.24 39.85 55.00 30.05 45.02 0.00 12.61 54.50 206.50 20.70 559.23 0.54 Inf 0.24 0.05 229.24 0.00 -221.66 9.99 9.71 10.00 0.6270 7.19 26.44
EQU 256 06/06/19 18:53:30 0.00 NaN 3567.80 926.97 1246.00 15.67 45.77 916.05 1559840025.00 0.00 16181.50 550.81 39.85 55.00 30.05 45.02 0.00 12.61 54.50 216.50 20.70 551.60 0.44 Inf 0.24 0.05 225.92 0.00 -221.93 9.99 9.71 10.00 0.6270 7.25 26.50
EQU 256 06/06/19 18:54:50 0.00 NaN 2366.40 497.21 1244.00 15.63 45.78 916.25 1559840105.00 0.00 16152.10 501.19 39.84 55.00 30.05 45.02 0.00 12.61 54.50 -186.50 20.70 503.13 1.02 -0.42 0.24 0.05 225.70 0.00 -221.93 9.99 9.71 10.00 0.6270 7.25 26.50
EQU 256 06/06/19 18:56:09 0.00 NaN 2560.80 557.89 1251.20 15.75 45.77 916.29 1559840185.00 0.00 16236.50 560.87 39.84 55.00 30.05 45.02 0.00 12.61 54.50 -17.25 20.70 553.90 13.86 5.24 0.24 0.05 229.68 0.00 -221.87 9.99 9.72 10.00 0.6270 7.31 26.50
EQU 256 06/06/19 18:57:29 0.00 NaN 2558.50 557.11 1252.00 15.77 45.77 916.32 1559840264.00 0.00 16288.60 559.80 39.84 55.00 30.05 45.02 0.00 12.61 54.50 -14.50 20.70 559.62 0.12 -0.12 0.24 0.05 229.02 0.00 -221.84 9.99 9.70 10.00 0.6270 7.31 26.50
EQU 256 06/06/19 18:58:49 0.00 NaN 2686.20 551.16 1237.60 14.40 45.78 971.77 1559840345.00 0.00 14961.60 614.44 39.84 55.00 30.06 45.02 0.00 12.61 54.50 -134.75 20.70 593.25 88.58 Inf 0.24 0.05 230.80 0.00 -221.84 9.99 9.72 10.00 0.6260 7.31 26.50
EQU 256 06/06/19 19:00:11 0.00 NaN 2587.60 521.90 1236.10 14.38 45.77 971.79 1559840426.00 0.00 14823.60 528.64 39.84 55.00 30.06 45.02 0.00 12.61 54.50 -122.75 20.70 553.82 47.51 -32.71 0.24 0.05 229.46 0.00 -221.84 9.99 9.69 10.00 0.6270 7.31 26.50
EQU 256 06/06/19 19:01:31 0.00 NaN 2547.10 510.09 1232.80 14.32 45.78 971.81 1559840506.00 0.00 14811.70 524.11 39.83 55.00 30.04 45.02 0.00 12.61 54.50 192.00 20.70 556.40 37.57 -32.32 0.24 0.05 229.90 0.00 -221.84 9.99 9.70 10.00 0.6280 7.31 26.50
EQU-DRAIN 256 06/06/19 19:02:50 0.00 NaN 2618.30 576.38 1260.70 15.92 45.77 916.44 1559840586.00 0.00 16395.30 577.49 39.84 55.00 30.04 45.02 0.00 12.61 54.50 197.50 20.70 565.47 13.25 10.40 0.24 0.05 229.02 0.00 -221.84 9.99 9.71 10.00 0.6270 7.31 26.50
EQU 256 06/06/19 19:04:31 0.00 NaN 2594.40 568.69 1271.40 16.11 45.77 916.50 1559840686.00 0.00 16625.10 571.30 39.84 55.00 30.04 45.02 0.00 12.61 54.50 28.25 20.70 571.79 0.22 0.22 0.24 0.05 228.35 0.00 -221.84 9.99 9.71 10.00 0.6270 7.31 26.50
EQU 256 06/06/19 19:05:51 0.00 NaN 2581.50 564.49 1276.50 16.20 45.78 916.59 1559840766.00 0.00 16715.50 566.90 39.84 55.00 30.04 45.02 0.00 12.61 54.50 28.00 20.70 567.42 0.35 0.18 0.24 0.05 225.92 0.00 -221.84 9.99 9.71 10.00 0.6270 7.37 26.50
EQU 256 06/06/19 19:07:11 0.00 NaN 2576.90 563.16 1288.70 16.42 45.79 916.53 1559840846.00 0.00 16934.30 566.25 39.84 55.00 30.05 45.02 0.00 12.61 54.50 107.25 20.70 567.61 0.71 Inf 0.24 0.05 225.48 0.00 -221.84 9.99 9.70 10.00 0.6270 7.37 26.50
EQU 256 06/06/19 19:08:30 0.00 NaN 2553.50 555.72 1301.70 16.66 45.79 916.57 1559840925.00 0.00 17162.90 558.63 39.84 55.00 30.04 45.02 0.00 12.61 54.50 88.00 20.70 559.51 0.49 0.25 0.24 0.05 228.13 0.00 -221.84 9.99 9.70 10.00 0.6260 7.37 26.50
EQU 256 06/06/19 19:09:50 0.00 NaN 2539.50 551.35 1314.70 16.89 45.78 916.59 1559841005.00 0.00 17395.70 554.03 39.84 55.00 30.04 45.02 0.00 12.61 54.50 78.25 20.70 554.53 0.25 -0.25 0.24 0.05 229.68 0.00 -221.84 9.99 9.72 10.00 0.6270 7.37 26.56
SHUT DOWN 0 06/06/19 19:09:55
Markdown is supported
0% or
You are about to add 0 people to the discussion. Proceed with caution.
Finish editing this message first!
Please register or to comment